<?xml version="1.0" encoding="UTF-8"?>
<gpx xmlns="http://www.topografix.com/GPX/1/1" xmlns:xsi="http://www.w3.org/2001/XMLSchema-instance" version="1.1" xsi:schemaLocation="http://www.topografix.com/GPX/1/1 http://www.topografix.com/GPX/1/1/gpx.xsd">
  <metadata>
    <name>St. Catherine's Triathlon - Aquabike Sprint</name>
  </metadata>
  <trk>
    <name>St. Catherine's Triathlon - Aquabike Sprint</name>
    <trkseg>
      <trkpt lat="49.224436" lon="-2.019934">
        <ele>2.366723</ele>
        <time>2026-05-17T07:30:00.000Z</time>
      </trkpt>
      <trkpt lat="49.224411" lon="-2.019998">
        <ele>2.366731</ele>
        <time>2026-05-17T07:30:01.000Z</time>
      </trkpt>
      <trkpt lat="49.22429" lon="-2.020251">
        <ele>2.366721</ele>
        <time>2026-05-17T07:30:03.000Z</time>
      </trkpt>
      <trkpt lat="49.223891" lon="-2.021214">
        <ele>2.635422</ele>
        <time>2026-05-17T07:30:11.000Z</time>
      </trkpt>
      <trkpt lat="49.223779" lon="-2.022574">
        <ele>5.141857</ele>
        <time>2026-05-17T07:30:21.000Z</time>
      </trkpt>
      <trkpt lat="49.223724" lon="-2.023204">
        <ele>6.305114</ele>
        <time>2026-05-17T07:30:26.000Z</time>
      </trkpt>
      <trkpt lat="49.223651" lon="-2.023744">
        <ele>7.316802</ele>
        <time>2026-05-17T07:30:30.000Z</time>
      </trkpt>
      <trkpt lat="49.223459" lon="-2.024061">
        <ele>7.487315</ele>
        <time>2026-05-17T07:30:33.000Z</time>
      </trkpt>
      <trkpt lat="49.22324" lon="-2.024334">
        <ele>7.574572</ele>
        <time>2026-05-17T07:30:36.000Z</time>
      </trkpt>
      <trkpt lat="49.222972" lon="-2.024566">
        <ele>7.67638</ele>
        <time>2026-05-17T07:30:39.000Z</time>
      </trkpt>
      <trkpt lat="49.222633" lon="-2.02489">
        <ele>7.799209</ele>
        <time>2026-05-17T07:30:43.000Z</time>
      </trkpt>
      <trkpt lat="49.222492" lon="-2.025098">
        <ele>7.86252</ele>
        <time>2026-05-17T07:30:45.000Z</time>
      </trkpt>
      <trkpt lat="49.222017" lon="-2.026135">
        <ele>8.428103</ele>
        <time>2026-05-17T07:30:54.000Z</time>
      </trkpt>
      <trkpt lat="49.221808" lon="-2.026553">
        <ele>8.763821</ele>
        <time>2026-05-17T07:30:58.000Z</time>
      </trkpt>
      <trkpt lat="49.221666" lon="-2.026706">
        <ele>8.93748</ele>
        <time>2026-05-17T07:31:00.000Z</time>
      </trkpt>
      <trkpt lat="49.221449" lon="-2.026879">
        <ele>9.170462</ele>
        <time>2026-05-17T07:31:03.000Z</time>
      </trkpt>
      <trkpt lat="49.221161" lon="-2.026973">
        <ele>9.471967</ele>
        <time>2026-05-17T07:31:06.000Z</time>
      </trkpt>
      <trkpt lat="49.221046" lon="-2.026977">
        <ele>9.578617</ele>
        <time>2026-05-17T07:31:07.000Z</time>
      </trkpt>
      <trkpt lat="49.220473" lon="-2.026726">
        <ele>9.29244</ele>
        <time>2026-05-17T07:31:14.000Z</time>
      </trkpt>
      <trkpt lat="49.220203" lon="-2.026839">
        <ele>9.008795</ele>
        <time>2026-05-17T07:31:17.000Z</time>
      </trkpt>
      <trkpt lat="49.219992" lon="-2.02703">
        <ele>8.756608</ele>
        <time>2026-05-17T07:31:20.000Z</time>
      </trkpt>
      <trkpt lat="49.219836" lon="-2.027343">
        <ele>8.497045</ele>
        <time>2026-05-17T07:31:23.000Z</time>
      </trkpt>
      <trkpt lat="49.219666" lon="-2.027756">
        <ele>8.167836</ele>
        <time>2026-05-17T07:31:27.000Z</time>
      </trkpt>
      <trkpt lat="49.219533" lon="-2.028015">
        <ele>7.944457</ele>
        <time>2026-05-17T07:31:29.000Z</time>
      </trkpt>
      <trkpt lat="49.21909" lon="-2.028571">
        <ele>7.513262</ele>
        <time>2026-05-17T07:31:35.000Z</time>
      </trkpt>
      <trkpt lat="49.218974" lon="-2.028896">
        <ele>7.342625</ele>
        <time>2026-05-17T07:31:38.000Z</time>
      </trkpt>
      <trkpt lat="49.218864" lon="-2.029465">
        <ele>7.061213</ele>
        <time>2026-05-17T07:31:42.000Z</time>
      </trkpt>
      <trkpt lat="49.218687" lon="-2.02973">
        <ele>6.88764</ele>
        <time>2026-05-17T07:31:45.000Z</time>
      </trkpt>
      <trkpt lat="49.218528" lon="-2.029888">
        <ele>6.748302</ele>
        <time>2026-05-17T07:31:47.000Z</time>
      </trkpt>
      <trkpt lat="49.218043" lon="-2.030258">
        <ele>7.96105</ele>
        <time>2026-05-17T07:31:53.000Z</time>
      </trkpt>
      <trkpt lat="49.217595" lon="-2.030994">
        <ele>10.496467</ele>
        <time>2026-05-17T07:32:00.000Z</time>
      </trkpt>
      <trkpt lat="49.217502" lon="-2.031361">
        <ele>11.577194</ele>
        <time>2026-05-17T07:32:03.000Z</time>
      </trkpt>
      <trkpt lat="49.216675" lon="-2.030794">
        <ele>14.628488</ele>
        <time>2026-05-17T07:32:13.000Z</time>
      </trkpt>
      <trkpt lat="49.215105" lon="-2.029504">
        <ele>18.619698</ele>
        <time>2026-05-17T07:32:33.000Z</time>
      </trkpt>
      <trkpt lat="49.214089" lon="-2.028049">
        <ele>20.077262</ele>
        <time>2026-05-17T07:32:48.000Z</time>
      </trkpt>
      <trkpt lat="49.214037" lon="-2.027987">
        <ele>20.141251</ele>
        <time>2026-05-17T07:32:49.000Z</time>
      </trkpt>
      <trkpt lat="49.213696" lon="-2.027649">
        <ele>20.440552</ele>
        <time>2026-05-17T07:32:54.000Z</time>
      </trkpt>
      <trkpt lat="49.21353" lon="-2.027566">
        <ele>20.560268</ele>
        <time>2026-05-17T07:32:56.000Z</time>
      </trkpt>
      <trkpt lat="49.213133" lon="-2.027469">
        <ele>20.847374</ele>
        <time>2026-05-17T07:33:00.000Z</time>
      </trkpt>
      <trkpt lat="49.212532" lon="-2.027395">
        <ele>21.29025</ele>
        <time>2026-05-17T07:33:07.000Z</time>
      </trkpt>
      <trkpt lat="49.212326" lon="-2.027261">
        <ele>21.419918</ele>
        <time>2026-05-17T07:33:09.000Z</time>
      </trkpt>
      <trkpt lat="49.212208" lon="-2.027144">
        <ele>21.269238</ele>
        <time>2026-05-17T07:33:11.000Z</time>
      </trkpt>
      <trkpt lat="49.211887" lon="-2.026626">
        <ele>20.73948</ele>
        <time>2026-05-17T07:33:16.000Z</time>
      </trkpt>
      <trkpt lat="49.211697" lon="-2.02632">
        <ele>20.418244</ele>
        <time>2026-05-17T07:33:19.000Z</time>
      </trkpt>
      <trkpt lat="49.211506" lon="-2.026141">
        <ele>20.171217</ele>
        <time>2026-05-17T07:33:21.000Z</time>
      </trkpt>
      <trkpt lat="49.211298" lon="-2.026034">
        <ele>19.906751</ele>
        <time>2026-05-17T07:33:23.000Z</time>
      </trkpt>
      <trkpt lat="49.211085" lon="-2.025969">
        <ele>19.669317</ele>
        <time>2026-05-17T07:33:25.000Z</time>
      </trkpt>
      <trkpt lat="49.210236" lon="-2.025883">
        <ele>19.773976</ele>
        <time>2026-05-17T07:33:34.000Z</time>
      </trkpt>
      <trkpt lat="49.2102" lon="-2.025868">
        <ele>19.788597</ele>
        <time>2026-05-17T07:33:34.000Z</time>
      </trkpt>
      <trkpt lat="49.209981" lon="-2.025763">
        <ele>19.944148</ele>
        <time>2026-05-17T07:33:37.000Z</time>
      </trkpt>
      <trkpt lat="49.209628" lon="-2.0255">
        <ele>20.191058</ele>
        <time>2026-05-17T07:33:41.000Z</time>
      </trkpt>
      <trkpt lat="49.2096" lon="-2.025483">
        <ele>20.210625</ele>
        <time>2026-05-17T07:33:41.000Z</time>
      </trkpt>
      <trkpt lat="49.209357" lon="-2.025217">
        <ele>20.403698</ele>
        <time>2026-05-17T07:33:44.000Z</time>
      </trkpt>
      <trkpt lat="49.209161" lon="-2.02494">
        <ele>20.340704</ele>
        <time>2026-05-17T07:33:47.000Z</time>
      </trkpt>
      <trkpt lat="49.209091" lon="-2.024817">
        <ele>20.099095</ele>
        <time>2026-05-17T07:33:48.000Z</time>
      </trkpt>
      <trkpt lat="49.208936" lon="-2.02449">
        <ele>19.439611</ele>
        <time>2026-05-17T07:33:51.000Z</time>
      </trkpt>
      <trkpt lat="49.208598" lon="-2.022859">
        <ele>16.593391</ele>
        <time>2026-05-17T07:34:03.000Z</time>
      </trkpt>
      <trkpt lat="49.208379" lon="-2.022016">
        <ele>14.495723</ele>
        <time>2026-05-17T07:34:10.000Z</time>
      </trkpt>
      <trkpt lat="49.208231" lon="-2.021693">
        <ele>13.368269</ele>
        <time>2026-05-17T07:34:13.000Z</time>
      </trkpt>
      <trkpt lat="49.208171" lon="-2.021626">
        <ele>13.057718</ele>
        <time>2026-05-17T07:34:14.000Z</time>
      </trkpt>
      <trkpt lat="49.208036" lon="-2.021562">
        <ele>12.473663</ele>
        <time>2026-05-17T07:34:16.000Z</time>
      </trkpt>
      <trkpt lat="49.207859" lon="-2.021552">
        <ele>11.729982</ele>
        <time>2026-05-17T07:34:18.000Z</time>
      </trkpt>
      <trkpt lat="49.207643" lon="-2.02165">
        <ele>10.746992</ele>
        <time>2026-05-17T07:34:21.000Z</time>
      </trkpt>
      <trkpt lat="49.207125" lon="-2.021968">
        <ele>8.403791</ele>
        <time>2026-05-17T07:34:27.000Z</time>
      </trkpt>
      <trkpt lat="49.206899" lon="-2.02228">
        <ele>8.038912</ele>
        <time>2026-05-17T07:34:30.000Z</time>
      </trkpt>
      <trkpt lat="49.206694" lon="-2.022605">
        <ele>7.773964</ele>
        <time>2026-05-17T07:34:33.000Z</time>
      </trkpt>
      <trkpt lat="49.206604" lon="-2.022672">
        <ele>7.676843</ele>
        <time>2026-05-17T07:34:34.000Z</time>
      </trkpt>
      <trkpt lat="49.206347" lon="-2.022775">
        <ele>7.4375</ele>
        <time>2026-05-17T07:34:37.000Z</time>
      </trkpt>
      <trkpt lat="49.205833" lon="-2.022775">
        <ele>6.977098</ele>
        <time>2026-05-17T07:34:43.000Z</time>
      </trkpt>
      <trkpt lat="49.205264" lon="-2.022646">
        <ele>8.152847</ele>
        <time>2026-05-17T07:34:49.000Z</time>
      </trkpt>
      <trkpt lat="49.205138" lon="-2.022617">
        <ele>8.999236</ele>
        <time>2026-05-17T07:34:50.000Z</time>
      </trkpt>
      <trkpt lat="49.204544" lon="-2.022429">
        <ele>13.02609</ele>
        <time>2026-05-17T07:34:57.000Z</time>
      </trkpt>
      <trkpt lat="49.204027" lon="-2.022233">
        <ele>16.419368</ele>
        <time>2026-05-17T07:35:03.000Z</time>
      </trkpt>
      <trkpt lat="49.203928" lon="-2.022152">
        <ele>17.212918</ele>
        <time>2026-05-17T07:35:04.000Z</time>
      </trkpt>
      <trkpt lat="49.203657" lon="-2.021825">
        <ele>18.819319</ele>
        <time>2026-05-17T07:35:08.000Z</time>
      </trkpt>
      <trkpt lat="49.203424" lon="-2.021322">
        <ele>19.819808</ele>
        <time>2026-05-17T07:35:12.000Z</time>
      </trkpt>
      <trkpt lat="49.203414" lon="-2.021273">
        <ele>19.911794</ele>
        <time>2026-05-17T07:35:12.000Z</time>
      </trkpt>
      <trkpt lat="49.203393" lon="-2.021146">
        <ele>20.106686</ele>
        <time>2026-05-17T07:35:13.000Z</time>
      </trkpt>
      <trkpt lat="49.203449" lon="-2.020546">
        <ele>21.11007</ele>
        <time>2026-05-17T07:35:17.000Z</time>
      </trkpt>
      <trkpt lat="49.203523" lon="-2.019911">
        <ele>22.163591</ele>
        <time>2026-05-17T07:35:22.000Z</time>
      </trkpt>
      <trkpt lat="49.203523" lon="-2.019737">
        <ele>22.471143</ele>
        <time>2026-05-17T07:35:23.000Z</time>
      </trkpt>
      <trkpt lat="49.203469" lon="-2.019538">
        <ele>22.816973</ele>
        <time>2026-05-17T07:35:25.000Z</time>
      </trkpt>
      <trkpt lat="49.203261" lon="-2.019299">
        <ele>22.429614</ele>
        <time>2026-05-17T07:35:28.000Z</time>
      </trkpt>
      <trkpt lat="49.202957" lon="-2.019004">
        <ele>21.580608</ele>
        <time>2026-05-17T07:35:32.000Z</time>
      </trkpt>
      <trkpt lat="49.202773" lon="-2.018749">
        <ele>20.974057</ele>
        <time>2026-05-17T07:35:35.000Z</time>
      </trkpt>
      <trkpt lat="49.202762" lon="-2.01874">
        <ele>20.944508</ele>
        <time>2026-05-17T07:35:35.000Z</time>
      </trkpt>
      <trkpt lat="49.202652" lon="-2.018598">
        <ele>20.618363</ele>
        <time>2026-05-17T07:35:37.000Z</time>
      </trkpt>
      <trkpt lat="49.202577" lon="-2.0185">
        <ele>20.383839</ele>
        <time>2026-05-17T07:35:38.000Z</time>
      </trkpt>
      <trkpt lat="49.202536" lon="-2.018476">
        <ele>20.29169</ele>
        <time>2026-05-17T07:35:38.000Z</time>
      </trkpt>
      <trkpt lat="49.202493" lon="-2.018433">
        <ele>20.153034</ele>
        <time>2026-05-17T07:35:39.000Z</time>
      </trkpt>
      <trkpt lat="49.202339" lon="-2.018332">
        <ele>19.740405</ele>
        <time>2026-05-17T07:35:41.000Z</time>
      </trkpt>
      <trkpt lat="49.202071" lon="-2.018297">
        <ele>19.105857</ele>
        <time>2026-05-17T07:35:44.000Z</time>
      </trkpt>
      <trkpt lat="49.201887" lon="-2.018389">
        <ele>18.668741</ele>
        <time>2026-05-17T07:35:46.000Z</time>
      </trkpt>
      <trkpt lat="49.201631" lon="-2.018678">
        <ele>18.747838</ele>
        <time>2026-05-17T07:35:50.000Z</time>
      </trkpt>
      <trkpt lat="49.20106" lon="-2.019102">
        <ele>18.966778</ele>
        <time>2026-05-17T07:35:57.000Z</time>
      </trkpt>
      <trkpt lat="49.200855" lon="-2.01927">
        <ele>19.04301</ele>
        <time>2026-05-17T07:36:00.000Z</time>
      </trkpt>
      <trkpt lat="49.200729" lon="-2.019452">
        <ele>19.104269</ele>
        <time>2026-05-17T07:36:02.000Z</time>
      </trkpt>
      <trkpt lat="49.200599" lon="-2.019653">
        <ele>19.165373</ele>
        <time>2026-05-17T07:36:04.000Z</time>
      </trkpt>
      <trkpt lat="49.200576" lon="-2.019774">
        <ele>19.195403</ele>
        <time>2026-05-17T07:36:05.000Z</time>
      </trkpt>
      <trkpt lat="49.200525" lon="-2.020809">
        <ele>17.176442</ele>
        <time>2026-05-17T07:36:13.000Z</time>
      </trkpt>
      <trkpt lat="49.200515" lon="-2.021063">
        <ele>16.498248</ele>
        <time>2026-05-17T07:36:15.000Z</time>
      </trkpt>
      <trkpt lat="49.200152" lon="-2.022382">
        <ele>12.528731</ele>
        <time>2026-05-17T07:36:25.000Z</time>
      </trkpt>
      <trkpt lat="49.20003" lon="-2.022908">
        <ele>11.173422</ele>
        <time>2026-05-17T07:36:29.000Z</time>
      </trkpt>
      <trkpt lat="49.199816" lon="-2.023538">
        <ele>9.687338</ele>
        <time>2026-05-17T07:36:34.000Z</time>
      </trkpt>
      <trkpt lat="49.199756" lon="-2.023649">
        <ele>9.378446</ele>
        <time>2026-05-17T07:36:35.000Z</time>
      </trkpt>
      <trkpt lat="49.199657" lon="-2.023694">
        <ele>9.067913</ele>
        <time>2026-05-17T07:36:36.000Z</time>
      </trkpt>
      <trkpt lat="49.199729" lon="-2.023426">
        <ele>8.47199</ele>
        <time>2026-05-17T07:36:38.000Z</time>
      </trkpt>
      <trkpt lat="49.199938" lon="-2.022669">
        <ele>6.779677</ele>
        <time>2026-05-17T07:36:44.000Z</time>
      </trkpt>
      <trkpt lat="49.199954" lon="-2.022472">
        <ele>6.380132</ele>
        <time>2026-05-17T07:36:45.000Z</time>
      </trkpt>
      <trkpt lat="49.200025" lon="-2.021846">
        <ele>5.564312</ele>
        <time>2026-05-17T07:36:50.000Z</time>
      </trkpt>
      <trkpt lat="49.200009" lon="-2.021453">
        <ele>5.187028</ele>
        <time>2026-05-17T07:36:53.000Z</time>
      </trkpt>
      <trkpt lat="49.199972" lon="-2.021308">
        <ele>5.046289</ele>
        <time>2026-05-17T07:36:54.000Z</time>
      </trkpt>
      <trkpt lat="49.199935" lon="-2.021262">
        <ele>4.977904</ele>
        <time>2026-05-17T07:36:55.000Z</time>
      </trkpt>
      <trkpt lat="49.199892" lon="-2.021271">
        <ele>4.930921</ele>
        <time>2026-05-17T07:36:55.000Z</time>
      </trkpt>
      <trkpt lat="49.199892" lon="-2.021277">
        <ele>4.909956</ele>
        <time>2026-05-17T07:36:55.000Z</time>
      </trkpt>
      <trkpt lat="49.199848" lon="-2.021313">
        <ele>4.85609</ele>
        <time>2026-05-17T07:36:56.000Z</time>
      </trkpt>
      <trkpt lat="49.199815" lon="-2.021589">
        <ele>4.598415</ele>
        <time>2026-05-17T07:36:58.000Z</time>
      </trkpt>
      <trkpt lat="49.199783" lon="-2.021933">
        <ele>4.279125</ele>
        <time>2026-05-17T07:37:01.000Z</time>
      </trkpt>
      <trkpt lat="49.199739" lon="-2.022289">
        <ele>3.937126</ele>
        <time>2026-05-17T07:37:04.000Z</time>
      </trkpt>
      <trkpt lat="49.199645" lon="-2.022827">
        <ele>3.423276</ele>
        <time>2026-05-17T07:37:08.000Z</time>
      </trkpt>
      <trkpt lat="49.19952" lon="-2.023218">
        <ele>3.357047</ele>
        <time>2026-05-17T07:37:11.000Z</time>
      </trkpt>
      <trkpt lat="49.199355" lon="-2.023601">
        <ele>3.30386</ele>
        <time>2026-05-17T07:37:14.000Z</time>
      </trkpt>
      <trkpt lat="49.198973" lon="-2.024449">
        <ele>3.185651</ele>
        <time>2026-05-17T07:37:21.000Z</time>
      </trkpt>
      <trkpt lat="49.198746" lon="-2.02516">
        <ele>3.096994</ele>
        <time>2026-05-17T07:37:27.000Z</time>
      </trkpt>
      <trkpt lat="49.198549" lon="-2.026534">
        <ele>2.257831</ele>
        <time>2026-05-17T07:37:37.000Z</time>
      </trkpt>
      <trkpt lat="49.198464" lon="-2.02691">
        <ele>2.010845</ele>
        <time>2026-05-17T07:37:40.000Z</time>
      </trkpt>
      <trkpt lat="49.198288" lon="-2.027423">
        <ele>1.654306</ele>
        <time>2026-05-17T07:37:44.000Z</time>
      </trkpt>
      <trkpt lat="49.197642" lon="-2.028691">
        <ele>2.793278</ele>
        <time>2026-05-17T07:37:56.000Z</time>
      </trkpt>
      <trkpt lat="49.197515" lon="-2.028932">
        <ele>3.141267</ele>
        <time>2026-05-17T07:37:58.000Z</time>
      </trkpt>
      <trkpt lat="49.19704" lon="-2.029903">
        <ele>4.601952</ele>
        <time>2026-05-17T07:38:07.000Z</time>
      </trkpt>
      <trkpt lat="49.196719" lon="-2.030633">
        <ele>5.218327</ele>
        <time>2026-05-17T07:38:13.000Z</time>
      </trkpt>
      <trkpt lat="49.19644" lon="-2.031017">
        <ele>5.598522</ele>
        <time>2026-05-17T07:38:17.000Z</time>
      </trkpt>
      <trkpt lat="49.196437" lon="-2.031012">
        <ele>5.603933</ele>
        <time>2026-05-17T07:38:17.000Z</time>
      </trkpt>
      <trkpt lat="49.196235" lon="-2.031264">
        <ele>5.882881</ele>
        <time>2026-05-17T07:38:20.000Z</time>
      </trkpt>
      <trkpt lat="49.195891" lon="-2.031784">
        <ele>6.393478</ele>
        <time>2026-05-17T07:38:25.000Z</time>
      </trkpt>
      <trkpt lat="49.195363" lon="-2.03264">
        <ele>6.466928</ele>
        <time>2026-05-17T07:38:34.000Z</time>
      </trkpt>
      <trkpt lat="49.19589" lon="-2.031791">
        <ele>6.398019</ele>
        <time>2026-05-17T07:38:43.000Z</time>
      </trkpt>
      <trkpt lat="49.196225" lon="-2.031252">
        <ele>6.196733</ele>
        <time>2026-05-17T07:38:48.000Z</time>
      </trkpt>
      <trkpt lat="49.196439" lon="-2.031015">
        <ele>5.776645</ele>
        <time>2026-05-17T07:38:51.000Z</time>
      </trkpt>
      <trkpt lat="49.196443" lon="-2.031006">
        <ele>5.768508</ele>
        <time>2026-05-17T07:38:51.000Z</time>
      </trkpt>
      <trkpt lat="49.196712" lon="-2.030634">
        <ele>5.195936</ele>
        <time>2026-05-17T07:38:55.000Z</time>
      </trkpt>
      <trkpt lat="49.197034" lon="-2.029908">
        <ele>4.293288</ele>
        <time>2026-05-17T07:39:01.000Z</time>
      </trkpt>
      <trkpt lat="49.197514" lon="-2.028928">
        <ele>3.115185</ele>
        <time>2026-05-17T07:39:10.000Z</time>
      </trkpt>
      <trkpt lat="49.197645" lon="-2.028705">
        <ele>2.868971</ele>
        <time>2026-05-17T07:39:12.000Z</time>
      </trkpt>
      <trkpt lat="49.198072" lon="-2.027838">
        <ele>1.967518</ele>
        <time>2026-05-17T07:39:20.000Z</time>
      </trkpt>
      <trkpt lat="49.198069" lon="-2.027844">
        <ele>1.965992</ele>
        <time>2026-05-17T07:39:20.000Z</time>
      </trkpt>
      <trkpt lat="49.198292" lon="-2.027419">
        <ele>1.52654</ele>
        <time>2026-05-17T07:39:24.000Z</time>
      </trkpt>
      <trkpt lat="49.19846" lon="-2.026902">
        <ele>1.435178</ele>
        <time>2026-05-17T07:39:28.000Z</time>
      </trkpt>
      <trkpt lat="49.198556" lon="-2.026522">
        <ele>1.799067</ele>
        <time>2026-05-17T07:39:31.000Z</time>
      </trkpt>
      <trkpt lat="49.198746" lon="-2.025162">
        <ele>3.081398</ele>
        <time>2026-05-17T07:39:41.000Z</time>
      </trkpt>
      <trkpt lat="49.198968" lon="-2.024457">
        <ele>3.720617</ele>
        <time>2026-05-17T07:39:47.000Z</time>
      </trkpt>
      <trkpt lat="49.199351" lon="-2.023606">
        <ele>3.581268</ele>
        <time>2026-05-17T07:39:55.000Z</time>
      </trkpt>
      <trkpt lat="49.199526" lon="-2.023219">
        <ele>3.518547</ele>
        <time>2026-05-17T07:39:58.000Z</time>
      </trkpt>
      <trkpt lat="49.199653" lon="-2.022823">
        <ele>3.460563</ele>
        <time>2026-05-17T07:40:01.000Z</time>
      </trkpt>
      <trkpt lat="49.199742" lon="-2.022297">
        <ele>3.386219</ele>
        <time>2026-05-17T07:40:05.000Z</time>
      </trkpt>
      <trkpt lat="49.199776" lon="-2.021919">
        <ele>3.604556</ele>
        <time>2026-05-17T07:40:08.000Z</time>
      </trkpt>
      <trkpt lat="49.199821" lon="-2.02158">
        <ele>4.114298</ele>
        <time>2026-05-17T07:40:11.000Z</time>
      </trkpt>
      <trkpt lat="49.199853" lon="-2.021316">
        <ele>4.525656</ele>
        <time>2026-05-17T07:40:13.000Z</time>
      </trkpt>
      <trkpt lat="49.199904" lon="-2.021267">
        <ele>4.645101</ele>
        <time>2026-05-17T07:40:14.000Z</time>
      </trkpt>
      <trkpt lat="49.199938" lon="-2.02127">
        <ele>4.720126</ele>
        <time>2026-05-17T07:40:14.000Z</time>
      </trkpt>
      <trkpt lat="49.199969" lon="-2.021304">
        <ele>4.829297</ele>
        <time>2026-05-17T07:40:14.000Z</time>
      </trkpt>
      <trkpt lat="49.200006" lon="-2.021448">
        <ele>5.053962</ele>
        <time>2026-05-17T07:40:15.000Z</time>
      </trkpt>
      <trkpt lat="49.20002" lon="-2.021859">
        <ele>5.656286</ele>
        <time>2026-05-17T07:40:18.000Z</time>
      </trkpt>
      <trkpt lat="49.199951" lon="-2.022477">
        <ele>6.59044</ele>
        <time>2026-05-17T07:40:23.000Z</time>
      </trkpt>
      <trkpt lat="49.199931" lon="-2.022672">
        <ele>6.875681</ele>
        <time>2026-05-17T07:40:24.000Z</time>
      </trkpt>
      <trkpt lat="49.199728" lon="-2.023429">
        <ele>8.468811</ele>
        <time>2026-05-17T07:40:30.000Z</time>
      </trkpt>
      <trkpt lat="49.199657" lon="-2.023684">
        <ele>9.150313</ele>
        <time>2026-05-17T07:40:32.000Z</time>
      </trkpt>
      <trkpt lat="49.199754" lon="-2.023655">
        <ele>9.505455</ele>
        <time>2026-05-17T07:40:33.000Z</time>
      </trkpt>
      <trkpt lat="49.199818" lon="-2.023542">
        <ele>9.858689</ele>
        <time>2026-05-17T07:40:34.000Z</time>
      </trkpt>
      <trkpt lat="49.200024" lon="-2.022898">
        <ele>11.558205</ele>
        <time>2026-05-17T07:40:39.000Z</time>
      </trkpt>
      <trkpt lat="49.20016" lon="-2.02239">
        <ele>12.872578</ele>
        <time>2026-05-17T07:40:43.000Z</time>
      </trkpt>
      <trkpt lat="49.200511" lon="-2.021055">
        <ele>16.046968</ele>
        <time>2026-05-17T07:40:53.000Z</time>
      </trkpt>
      <trkpt lat="49.200537" lon="-2.020812">
        <ele>16.568179</ele>
        <time>2026-05-17T07:40:55.000Z</time>
      </trkpt>
      <trkpt lat="49.20058" lon="-2.01978">
        <ele>18.741627</ele>
        <time>2026-05-17T07:41:03.000Z</time>
      </trkpt>
      <trkpt lat="49.200601" lon="-2.019648">
        <ele>19.025135</ele>
        <time>2026-05-17T07:41:04.000Z</time>
      </trkpt>
      <trkpt lat="49.200724" lon="-2.019445">
        <ele>19.601817</ele>
        <time>2026-05-17T07:41:06.000Z</time>
      </trkpt>
      <trkpt lat="49.200858" lon="-2.019276">
        <ele>19.751279</ele>
        <time>2026-05-17T07:41:08.000Z</time>
      </trkpt>
      <trkpt lat="49.201053" lon="-2.019101">
        <ele>19.643478</ele>
        <time>2026-05-17T07:41:11.000Z</time>
      </trkpt>
      <trkpt lat="49.201629" lon="-2.01869">
        <ele>19.333943</ele>
        <time>2026-05-17T07:41:18.000Z</time>
      </trkpt>
      <trkpt lat="49.201904" lon="-2.018382">
        <ele>19.175334</ele>
        <time>2026-05-17T07:41:22.000Z</time>
      </trkpt>
      <trkpt lat="49.202077" lon="-2.018312">
        <ele>19.086613</ele>
        <time>2026-05-17T07:41:24.000Z</time>
      </trkpt>
      <trkpt lat="49.202333" lon="-2.01834">
        <ele>18.957853</ele>
        <time>2026-05-17T07:41:27.000Z</time>
      </trkpt>
      <trkpt lat="49.202493" lon="-2.018416">
        <ele>19.278241</ele>
        <time>2026-05-17T07:41:29.000Z</time>
      </trkpt>
      <trkpt lat="49.202547" lon="-2.018482">
        <ele>19.435491</ele>
        <time>2026-05-17T07:41:30.000Z</time>
      </trkpt>
      <trkpt lat="49.202569" lon="-2.018502">
        <ele>19.539984</ele>
        <time>2026-05-17T07:41:30.000Z</time>
      </trkpt>
      <trkpt lat="49.202663" lon="-2.0186">
        <ele>19.80596</ele>
        <time>2026-05-17T07:41:31.000Z</time>
      </trkpt>
      <trkpt lat="49.20276" lon="-2.018741">
        <ele>20.175829</ele>
        <time>2026-05-17T07:41:32.000Z</time>
      </trkpt>
      <trkpt lat="49.202772" lon="-2.018748">
        <ele>20.20935</ele>
        <time>2026-05-17T07:41:32.000Z</time>
      </trkpt>
      <trkpt lat="49.202965" lon="-2.018998">
        <ele>20.897248</ele>
        <time>2026-05-17T07:41:35.000Z</time>
      </trkpt>
      <trkpt lat="49.203265" lon="-2.019289">
        <ele>21.860091</ele>
        <time>2026-05-17T07:41:39.000Z</time>
      </trkpt>
      <trkpt lat="49.203454" lon="-2.019547">
        <ele>22.560158</ele>
        <time>2026-05-17T07:41:42.000Z</time>
      </trkpt>
      <trkpt lat="49.203512" lon="-2.019723">
        <ele>22.932219</ele>
        <time>2026-05-17T07:41:43.000Z</time>
      </trkpt>
      <trkpt lat="49.20351" lon="-2.019925">
        <ele>23.26311</ele>
        <time>2026-05-17T07:41:44.000Z</time>
      </trkpt>
      <trkpt lat="49.203448" lon="-2.020557">
        <ele>22.641042</ele>
        <time>2026-05-17T07:41:49.000Z</time>
      </trkpt>
      <trkpt lat="49.203395" lon="-2.021154">
        <ele>20.508492</ele>
        <time>2026-05-17T07:41:53.000Z</time>
      </trkpt>
      <trkpt lat="49.203413" lon="-2.021266">
        <ele>20.094315</ele>
        <time>2026-05-17T07:41:54.000Z</time>
      </trkpt>
      <trkpt lat="49.20342" lon="-2.021319">
        <ele>19.898803</ele>
        <time>2026-05-17T07:41:54.000Z</time>
      </trkpt>
      <trkpt lat="49.203652" lon="-2.021811">
        <ele>17.772387</ele>
        <time>2026-05-17T07:41:58.000Z</time>
      </trkpt>
      <trkpt lat="49.203927" lon="-2.022154">
        <ele>15.917388</ele>
        <time>2026-05-17T07:42:02.000Z</time>
      </trkpt>
      <trkpt lat="49.204042" lon="-2.022223">
        <ele>15.266812</ele>
        <time>2026-05-17T07:42:03.000Z</time>
      </trkpt>
      <trkpt lat="49.204528" lon="-2.022435">
        <ele>12.77442</ele>
        <time>2026-05-17T07:42:09.000Z</time>
      </trkpt>
      <trkpt lat="49.205137" lon="-2.022609">
        <ele>10.035804</ele>
        <time>2026-05-17T07:42:16.000Z</time>
      </trkpt>
      <trkpt lat="49.205278" lon="-2.022645">
        <ele>9.460188</ele>
        <time>2026-05-17T07:42:18.000Z</time>
      </trkpt>
      <trkpt lat="49.20583" lon="-2.02279">
        <ele>6.93586</ele>
        <time>2026-05-17T07:42:24.000Z</time>
      </trkpt>
      <trkpt lat="49.206342" lon="-2.022778">
        <ele>6.923775</ele>
        <time>2026-05-17T07:42:30.000Z</time>
      </trkpt>
      <trkpt lat="49.206597" lon="-2.022683">
        <ele>7.479909</ele>
        <time>2026-05-17T07:42:33.000Z</time>
      </trkpt>
      <trkpt lat="49.206687" lon="-2.022601">
        <ele>7.705572</ele>
        <time>2026-05-17T07:42:34.000Z</time>
      </trkpt>
      <trkpt lat="49.206912" lon="-2.022286">
        <ele>8.32121</ele>
        <time>2026-05-17T07:42:37.000Z</time>
      </trkpt>
      <trkpt lat="49.207132" lon="-2.021969">
        <ele>8.960126</ele>
        <time>2026-05-17T07:42:40.000Z</time>
      </trkpt>
      <trkpt lat="49.207641" lon="-2.021657">
        <ele>10.275237</ele>
        <time>2026-05-17T07:42:46.000Z</time>
      </trkpt>
      <trkpt lat="49.207855" lon="-2.021551">
        <ele>11.324868</ele>
        <time>2026-05-17T07:42:49.000Z</time>
      </trkpt>
      <trkpt lat="49.208029" lon="-2.021562">
        <ele>12.118972</ele>
        <time>2026-05-17T07:42:51.000Z</time>
      </trkpt>
      <trkpt lat="49.20817" lon="-2.021623">
        <ele>12.742601</ele>
        <time>2026-05-17T07:42:53.000Z</time>
      </trkpt>
      <trkpt lat="49.208228" lon="-2.021699">
        <ele>13.074223</ele>
        <time>2026-05-17T07:42:54.000Z</time>
      </trkpt>
      <trkpt lat="49.208379" lon="-2.02202">
        <ele>14.278103</ele>
        <time>2026-05-17T07:42:57.000Z</time>
      </trkpt>
      <trkpt lat="49.208595" lon="-2.02285">
        <ele>16.970887</ele>
        <time>2026-05-17T07:43:03.000Z</time>
      </trkpt>
      <trkpt lat="49.208936" lon="-2.024505">
        <ele>19.127922</ele>
        <time>2026-05-17T07:43:16.000Z</time>
      </trkpt>
      <trkpt lat="49.209088" lon="-2.024817">
        <ele>19.416531</ele>
        <time>2026-05-17T07:43:19.000Z</time>
      </trkpt>
      <trkpt lat="49.209161" lon="-2.024932">
        <ele>19.522264</ele>
        <time>2026-05-17T07:43:20.000Z</time>
      </trkpt>
      <trkpt lat="49.209348" lon="-2.025219">
        <ele>19.824833</ele>
        <time>2026-05-17T07:43:23.000Z</time>
      </trkpt>
      <trkpt lat="49.209603" lon="-2.025475">
        <ele>20.160368</ele>
        <time>2026-05-17T07:43:26.000Z</time>
      </trkpt>
      <trkpt lat="49.209625" lon="-2.025501">
        <ele>20.162615</ele>
        <time>2026-05-17T07:43:26.000Z</time>
      </trkpt>
      <trkpt lat="49.209969" lon="-2.025764">
        <ele>20.095934</ele>
        <time>2026-05-17T07:43:30.000Z</time>
      </trkpt>
      <trkpt lat="49.210204" lon="-2.025882">
        <ele>20.053926</ele>
        <time>2026-05-17T07:43:33.000Z</time>
      </trkpt>
      <trkpt lat="49.21023" lon="-2.025888">
        <ele>20.049967</ele>
        <time>2026-05-17T07:43:33.000Z</time>
      </trkpt>
      <trkpt lat="49.211084" lon="-2.025962">
        <ele>19.901489</ele>
        <time>2026-05-17T07:43:43.000Z</time>
      </trkpt>
      <trkpt lat="49.211293" lon="-2.026025">
        <ele>19.86572</ele>
        <time>2026-05-17T07:43:45.000Z</time>
      </trkpt>
      <trkpt lat="49.211505" lon="-2.026151">
        <ele>20.017312</ele>
        <time>2026-05-17T07:43:48.000Z</time>
      </trkpt>
      <trkpt lat="49.211693" lon="-2.026323">
        <ele>20.207238</ele>
        <time>2026-05-17T07:43:50.000Z</time>
      </trkpt>
      <trkpt lat="49.211893" lon="-2.026626">
        <ele>20.454213</ele>
        <time>2026-05-17T07:43:53.000Z</time>
      </trkpt>
      <trkpt lat="49.212206" lon="-2.027153">
        <ele>20.861489</ele>
        <time>2026-05-17T07:43:58.000Z</time>
      </trkpt>
      <trkpt lat="49.212316" lon="-2.027262">
        <ele>20.97733</ele>
        <time>2026-05-17T07:43:59.000Z</time>
      </trkpt>
      <trkpt lat="49.212526" lon="-2.027384">
        <ele>21.17321</ele>
        <time>2026-05-17T07:44:01.000Z</time>
      </trkpt>
      <trkpt lat="49.213137" lon="-2.027485">
        <ele>21.13103</ele>
        <time>2026-05-17T07:44:08.000Z</time>
      </trkpt>
      <trkpt lat="49.213543" lon="-2.027559">
        <ele>20.743012</ele>
        <time>2026-05-17T07:44:13.000Z</time>
      </trkpt>
      <trkpt lat="49.213685" lon="-2.027644">
        <ele>20.581228</ele>
        <time>2026-05-17T07:44:15.000Z</time>
      </trkpt>
      <trkpt lat="49.214034" lon="-2.027996">
        <ele>20.178308</ele>
        <time>2026-05-17T07:44:20.000Z</time>
      </trkpt>
      <trkpt lat="49.214082" lon="-2.028038">
        <ele>20.118861</ele>
        <time>2026-05-17T07:44:21.000Z</time>
      </trkpt>
      <trkpt lat="49.215096" lon="-2.02951">
        <ele>18.44755</ele>
        <time>2026-05-17T07:44:37.000Z</time>
      </trkpt>
      <trkpt lat="49.216682" lon="-2.030799">
        <ele>14.371336</ele>
        <time>2026-05-17T07:44:57.000Z</time>
      </trkpt>
      <trkpt lat="49.217489" lon="-2.031376">
        <ele>11.520467</ele>
        <time>2026-05-17T07:45:07.000Z</time>
      </trkpt>
      <trkpt lat="49.21761" lon="-2.030991">
        <ele>10.662398</ele>
        <time>2026-05-17T07:45:10.000Z</time>
      </trkpt>
      <trkpt lat="49.21804" lon="-2.03026">
        <ele>8.649292</ele>
        <time>2026-05-17T07:45:17.000Z</time>
      </trkpt>
      <trkpt lat="49.218525" lon="-2.02989">
        <ele>6.918584</ele>
        <time>2026-05-17T07:45:23.000Z</time>
      </trkpt>
      <trkpt lat="49.218691" lon="-2.029733">
        <ele>6.310571</ele>
        <time>2026-05-17T07:45:25.000Z</time>
      </trkpt>
      <trkpt lat="49.218852" lon="-2.029469">
        <ele>6.188801</ele>
        <time>2026-05-17T07:45:28.000Z</time>
      </trkpt>
      <trkpt lat="49.218981" lon="-2.028896">
        <ele>6.827499</ele>
        <time>2026-05-17T07:45:32.000Z</time>
      </trkpt>
      <trkpt lat="49.219084" lon="-2.028578">
        <ele>7.214763</ele>
        <time>2026-05-17T07:45:35.000Z</time>
      </trkpt>
      <trkpt lat="49.219529" lon="-2.02802">
        <ele>8.161997</ele>
        <time>2026-05-17T07:45:41.000Z</time>
      </trkpt>
      <trkpt lat="49.219668" lon="-2.027767">
        <ele>8.519688</ele>
        <time>2026-05-17T07:45:43.000Z</time>
      </trkpt>
      <trkpt lat="49.219836" lon="-2.027331">
        <ele>8.933839</ele>
        <time>2026-05-17T07:45:47.000Z</time>
      </trkpt>
      <trkpt lat="49.219988" lon="-2.027022">
        <ele>8.986625</ele>
        <time>2026-05-17T07:45:50.000Z</time>
      </trkpt>
      <trkpt lat="49.220199" lon="-2.026844">
        <ele>9.037905</ele>
        <time>2026-05-17T07:45:53.000Z</time>
      </trkpt>
      <trkpt lat="49.220478" lon="-2.026731">
        <ele>9.095584</ele>
        <time>2026-05-17T07:45:56.000Z</time>
      </trkpt>
      <trkpt lat="49.221054" lon="-2.026971">
        <ele>9.219819</ele>
        <time>2026-05-17T07:46:03.000Z</time>
      </trkpt>
      <trkpt lat="49.221151" lon="-2.026965">
        <ele>9.242491</ele>
        <time>2026-05-17T07:46:04.000Z</time>
      </trkpt>
      <trkpt lat="49.22145" lon="-2.026879">
        <ele>9.250833</ele>
        <time>2026-05-17T07:46:07.000Z</time>
      </trkpt>
      <trkpt lat="49.221678" lon="-2.026716">
        <ele>9.116897</ele>
        <time>2026-05-17T07:46:10.000Z</time>
      </trkpt>
      <trkpt lat="49.221821" lon="-2.026549">
        <ele>9.017055</ele>
        <time>2026-05-17T07:46:12.000Z</time>
      </trkpt>
      <trkpt lat="49.22202" lon="-2.026123">
        <ele>8.824061</ele>
        <time>2026-05-17T07:46:16.000Z</time>
      </trkpt>
      <trkpt lat="49.222497" lon="-2.025102">
        <ele>8.361069</ele>
        <time>2026-05-17T07:46:25.000Z</time>
      </trkpt>
      <trkpt lat="49.222634" lon="-2.024886">
        <ele>8.407905</ele>
        <time>2026-05-17T07:46:27.000Z</time>
      </trkpt>
      <trkpt lat="49.222972" lon="-2.024577">
        <ele>9.306654</ele>
        <time>2026-05-17T07:46:31.000Z</time>
      </trkpt>
      <trkpt lat="49.223248" lon="-2.024323">
        <ele>10.05161</ele>
        <time>2026-05-17T07:46:35.000Z</time>
      </trkpt>
      <trkpt lat="49.223462" lon="-2.024071">
        <ele>10.690078</ele>
        <time>2026-05-17T07:46:38.000Z</time>
      </trkpt>
      <trkpt lat="49.223649" lon="-2.02374">
        <ele>11.353939</ele>
        <time>2026-05-17T07:46:41.000Z</time>
      </trkpt>
      <trkpt lat="49.223954" lon="-2.023357">
        <ele>12.291897</ele>
        <time>2026-05-17T07:46:45.000Z</time>
      </trkpt>
      <trkpt lat="49.224409" lon="-2.022995">
        <ele>11.696508</ele>
        <time>2026-05-17T07:46:51.000Z</time>
      </trkpt>
      <trkpt lat="49.224536" lon="-2.022911">
        <ele>11.459669</ele>
        <time>2026-05-17T07:46:53.000Z</time>
      </trkpt>
      <trkpt lat="49.22468" lon="-2.022762">
        <ele>11.154753</ele>
        <time>2026-05-17T07:46:55.000Z</time>
      </trkpt>
      <trkpt lat="49.224829" lon="-2.022511">
        <ele>10.798283</ele>
        <time>2026-05-17T07:46:57.000Z</time>
      </trkpt>
      <trkpt lat="49.224913" lon="-2.022243">
        <ele>10.450211</ele>
        <time>2026-05-17T07:46:59.000Z</time>
      </trkpt>
      <trkpt lat="49.224982" lon="-2.021901">
        <ele>10.047024</ele>
        <time>2026-05-17T07:47:02.000Z</time>
      </trkpt>
      <trkpt lat="49.225005" lon="-2.021681">
        <ele>9.796691</ele>
        <time>2026-05-17T07:47:04.000Z</time>
      </trkpt>
      <trkpt lat="49.224985" lon="-2.02133">
        <ele>9.384241</ele>
        <time>2026-05-17T07:47:07.000Z</time>
      </trkpt>
      <trkpt lat="49.224956" lon="-2.021063">
        <ele>8.803836</ele>
        <time>2026-05-17T07:47:09.000Z</time>
      </trkpt>
      <trkpt lat="49.224907" lon="-2.020812">
        <ele>8.130776</ele>
        <time>2026-05-17T07:47:11.000Z</time>
      </trkpt>
      <trkpt lat="49.224661" lon="-2.019899">
        <ele>5.685597</ele>
        <time>2026-05-17T07:47:18.000Z</time>
      </trkpt>
      <trkpt lat="49.224559" lon="-2.019824">
        <ele>5.312877</ele>
        <time>2026-05-17T07:47:19.000Z</time>
      </trkpt>
      <trkpt lat="49.224518" lon="-2.019848">
        <ele>5.117548</ele>
        <time>2026-05-17T07:47:19.000Z</time>
      </trkpt>
      <trkpt lat="49.224413" lon="-2.019998">
        <ele>4.578897</ele>
        <time>2026-05-17T07:47:21.000Z</time>
      </trkpt>
      <trkpt lat="49.224282" lon="-2.020267">
        <ele>3.77223</ele>
        <time>2026-05-17T07:47:23.000Z</time>
      </trkpt>
      <trkpt lat="49.223904" lon="-2.021211">
        <ele>3.504277</ele>
        <time>2026-05-17T07:47:31.000Z</time>
      </trkpt>
      <trkpt lat="49.223772" lon="-2.022565">
        <ele>5.548991</ele>
        <time>2026-05-17T07:47:41.000Z</time>
      </trkpt>
      <trkpt lat="49.223736" lon="-2.02319">
        <ele>6.497971</ele>
        <time>2026-05-17T07:47:46.000Z</time>
      </trkpt>
      <trkpt lat="49.223641" lon="-2.023744">
        <ele>6.882447</ele>
        <time>2026-05-17T07:47:50.000Z</time>
      </trkpt>
      <trkpt lat="49.223454" lon="-2.024059">
        <ele>7.09262</ele>
        <time>2026-05-17T07:47:53.000Z</time>
      </trkpt>
      <trkpt lat="49.223235" lon="-2.024332">
        <ele>7.294747</ele>
        <time>2026-05-17T07:47:56.000Z</time>
      </trkpt>
      <trkpt lat="49.222957" lon="-2.024577">
        <ele>7.530589</ele>
        <time>2026-05-17T07:48:00.000Z</time>
      </trkpt>
      <trkpt lat="49.222634" lon="-2.024882">
        <ele>7.815145</ele>
        <time>2026-05-17T07:48:04.000Z</time>
      </trkpt>
      <trkpt lat="49.222499" lon="-2.025106">
        <ele>7.96179</ele>
        <time>2026-05-17T07:48:06.000Z</time>
      </trkpt>
      <trkpt lat="49.222023" lon="-2.02613">
        <ele>8.643053</ele>
        <time>2026-05-17T07:48:15.000Z</time>
      </trkpt>
      <trkpt lat="49.221812" lon="-2.026547">
        <ele>8.928911</ele>
        <time>2026-05-17T07:48:19.000Z</time>
      </trkpt>
      <trkpt lat="49.221669" lon="-2.026708">
        <ele>9.076794</ele>
        <time>2026-05-17T07:48:21.000Z</time>
      </trkpt>
      <trkpt lat="49.221458" lon="-2.02688">
        <ele>9.275179</ele>
        <time>2026-05-17T07:48:24.000Z</time>
      </trkpt>
      <trkpt lat="49.221161" lon="-2.026967">
        <ele>9.470836</ele>
        <time>2026-05-17T07:48:27.000Z</time>
      </trkpt>
      <trkpt lat="49.221043" lon="-2.026975">
        <ele>9.41395</ele>
        <time>2026-05-17T07:48:28.000Z</time>
      </trkpt>
      <trkpt lat="49.220478" lon="-2.026725">
        <ele>9.10224</ele>
        <time>2026-05-17T07:48:35.000Z</time>
      </trkpt>
      <trkpt lat="49.220199" lon="-2.026845">
        <ele>8.957525</ele>
        <time>2026-05-17T07:48:38.000Z</time>
      </trkpt>
      <trkpt lat="49.219986" lon="-2.027039">
        <ele>8.828881</ele>
        <time>2026-05-17T07:48:41.000Z</time>
      </trkpt>
      <trkpt lat="49.219835" lon="-2.027331">
        <ele>8.696447</ele>
        <time>2026-05-17T07:48:44.000Z</time>
      </trkpt>
      <trkpt lat="49.219665" lon="-2.027761">
        <ele>8.48396</ele>
        <time>2026-05-17T07:48:48.000Z</time>
      </trkpt>
      <trkpt lat="49.219537" lon="-2.028028">
        <ele>8.183288</ele>
        <time>2026-05-17T07:48:50.000Z</time>
      </trkpt>
      <trkpt lat="49.219093" lon="-2.028584">
        <ele>7.387092</ele>
        <time>2026-05-17T07:48:56.000Z</time>
      </trkpt>
      <trkpt lat="49.21897" lon="-2.028895">
        <ele>7.061583</ele>
        <time>2026-05-17T07:48:59.000Z</time>
      </trkpt>
      <trkpt lat="49.218862" lon="-2.02947">
        <ele>6.524727</ele>
        <time>2026-05-17T07:49:03.000Z</time>
      </trkpt>
      <trkpt lat="49.218696" lon="-2.029731">
        <ele>6.193572</ele>
        <time>2026-05-17T07:49:06.000Z</time>
      </trkpt>
      <trkpt lat="49.218536" lon="-2.029894">
        <ele>6.470985</ele>
        <time>2026-05-17T07:49:08.000Z</time>
      </trkpt>
      <trkpt lat="49.218044" lon="-2.030264">
        <ele>8.425564</ele>
        <time>2026-05-17T07:49:14.000Z</time>
      </trkpt>
      <trkpt lat="49.217596" lon="-2.030996">
        <ele>10.699026</ele>
        <time>2026-05-17T07:49:21.000Z</time>
      </trkpt>
      <trkpt lat="49.217497" lon="-2.031368">
        <ele>11.668082</ele>
        <time>2026-05-17T07:49:24.000Z</time>
      </trkpt>
      <trkpt lat="49.216686" lon="-2.030787">
        <ele>14.43216</ele>
        <time>2026-05-17T07:49:34.000Z</time>
      </trkpt>
      <trkpt lat="49.215104" lon="-2.029511">
        <ele>18.491044</ele>
        <time>2026-05-17T07:49:54.000Z</time>
      </trkpt>
      <trkpt lat="49.214097" lon="-2.028039">
        <ele>20.074276</ele>
        <time>2026-05-17T07:50:09.000Z</time>
      </trkpt>
      <trkpt lat="49.214045" lon="-2.027983">
        <ele>20.130462</ele>
        <time>2026-05-17T07:50:10.000Z</time>
      </trkpt>
      <trkpt lat="49.213695" lon="-2.027637">
        <ele>20.511249</ele>
        <time>2026-05-17T07:50:15.000Z</time>
      </trkpt>
      <trkpt lat="49.213539" lon="-2.027566">
        <ele>20.664144</ele>
        <time>2026-05-17T07:50:17.000Z</time>
      </trkpt>
      <trkpt lat="49.21314" lon="-2.027485">
        <ele>21.030871</ele>
        <time>2026-05-17T07:50:21.000Z</time>
      </trkpt>
      <trkpt lat="49.212523" lon="-2.027394">
        <ele>21.38197</ele>
        <time>2026-05-17T07:50:28.000Z</time>
      </trkpt>
      <trkpt lat="49.212327" lon="-2.027273">
        <ele>21.151606</ele>
        <time>2026-05-17T07:50:30.000Z</time>
      </trkpt>
      <trkpt lat="49.212203" lon="-2.027151">
        <ele>21.015371</ele>
        <time>2026-05-17T07:50:32.000Z</time>
      </trkpt>
      <trkpt lat="49.211884" lon="-2.026626">
        <ele>20.536436</ele>
        <time>2026-05-17T07:50:37.000Z</time>
      </trkpt>
      <trkpt lat="49.211692" lon="-2.026319">
        <ele>20.245994</ele>
        <time>2026-05-17T07:50:40.000Z</time>
      </trkpt>
      <trkpt lat="49.211508" lon="-2.026145">
        <ele>20.022649</ele>
        <time>2026-05-17T07:50:42.000Z</time>
      </trkpt>
      <trkpt lat="49.211295" lon="-2.026019">
        <ele>19.783542</ele>
        <time>2026-05-17T07:50:45.000Z</time>
      </trkpt>
      <trkpt lat="49.211097" lon="-2.025955">
        <ele>19.664338</ele>
        <time>2026-05-17T07:50:47.000Z</time>
      </trkpt>
      <trkpt lat="49.210225" lon="-2.025881">
        <ele>20.01431</ele>
        <time>2026-05-17T07:50:57.000Z</time>
      </trkpt>
      <trkpt lat="49.210218" lon="-2.025874">
        <ele>20.02361</ele>
        <time>2026-05-17T07:50:57.000Z</time>
      </trkpt>
      <trkpt lat="49.209978" lon="-2.025769">
        <ele>20.122631</ele>
        <time>2026-05-17T07:51:00.000Z</time>
      </trkpt>
      <trkpt lat="49.209632" lon="-2.025506">
        <ele>20.27981</ele>
        <time>2026-05-17T07:51:04.000Z</time>
      </trkpt>
      <trkpt lat="49.209604" lon="-2.025491">
        <ele>20.292267</ele>
        <time>2026-05-17T07:51:04.000Z</time>
      </trkpt>
      <trkpt lat="49.209348" lon="-2.025225">
        <ele>20.171405</ele>
        <time>2026-05-17T07:51:07.000Z</time>
      </trkpt>
      <trkpt lat="49.209144" lon="-2.024937">
        <ele>19.718432</ele>
        <time>2026-05-17T07:51:10.000Z</time>
      </trkpt>
      <trkpt lat="49.209084" lon="-2.024827">
        <ele>19.560128</ele>
        <time>2026-05-17T07:51:11.000Z</time>
      </trkpt>
      <trkpt lat="49.208942" lon="-2.02449">
        <ele>19.128047</ele>
        <time>2026-05-17T07:51:14.000Z</time>
      </trkpt>
      <trkpt lat="49.208607" lon="-2.022851">
        <ele>17.055283</ele>
        <time>2026-05-17T07:51:26.000Z</time>
      </trkpt>
      <trkpt lat="49.208377" lon="-2.022027">
        <ele>14.396349</ele>
        <time>2026-05-17T07:51:33.000Z</time>
      </trkpt>
      <trkpt lat="49.208223" lon="-2.021686">
        <ele>13.207612</ele>
        <time>2026-05-17T07:51:36.000Z</time>
      </trkpt>
      <trkpt lat="49.208157" lon="-2.021619">
        <ele>12.880174</ele>
        <time>2026-05-17T07:51:37.000Z</time>
      </trkpt>
      <trkpt lat="49.208044" lon="-2.021552">
        <ele>12.264373</ele>
        <time>2026-05-17T07:51:38.000Z</time>
      </trkpt>
      <trkpt lat="49.207867" lon="-2.021567">
        <ele>11.480258</ele>
        <time>2026-05-17T07:51:40.000Z</time>
      </trkpt>
      <trkpt lat="49.207639" lon="-2.021647">
        <ele>10.443835</ele>
        <time>2026-05-17T07:51:43.000Z</time>
      </trkpt>
      <trkpt lat="49.207131" lon="-2.021974">
        <ele>8.790088</ele>
        <time>2026-05-17T07:51:49.000Z</time>
      </trkpt>
      <trkpt lat="49.20691" lon="-2.022291">
        <ele>8.27509</ele>
        <time>2026-05-17T07:51:52.000Z</time>
      </trkpt>
      <trkpt lat="49.206697" lon="-2.022597">
        <ele>7.778867</ele>
        <time>2026-05-17T07:51:55.000Z</time>
      </trkpt>
      <trkpt lat="49.206608" lon="-2.022681">
        <ele>7.596968</ele>
        <time>2026-05-17T07:51:56.000Z</time>
      </trkpt>
      <trkpt lat="49.206334" lon="-2.022774">
        <ele>7.148706</ele>
        <time>2026-05-17T07:51:59.000Z</time>
      </trkpt>
      <trkpt lat="49.205824" lon="-2.022784">
        <ele>6.286438</ele>
        <time>2026-05-17T07:52:05.000Z</time>
      </trkpt>
      <trkpt lat="49.205273" lon="-2.022657">
        <ele>9.130382</ele>
        <time>2026-05-17T07:52:11.000Z</time>
      </trkpt>
      <trkpt lat="49.205147" lon="-2.022621">
        <ele>9.818855</ele>
        <time>2026-05-17T07:52:12.000Z</time>
      </trkpt>
      <trkpt lat="49.204528" lon="-2.022444">
        <ele>13.094425</ele>
        <time>2026-05-17T07:52:19.000Z</time>
      </trkpt>
      <trkpt lat="49.204034" lon="-2.022218">
        <ele>15.843427</ele>
        <time>2026-05-17T07:52:25.000Z</time>
      </trkpt>
      <trkpt lat="49.203922" lon="-2.022143">
        <ele>16.373428</ele>
        <time>2026-05-17T07:52:26.000Z</time>
      </trkpt>
      <trkpt lat="49.203661" lon="-2.021815">
        <ele>17.884604</ele>
        <time>2026-05-17T07:52:30.000Z</time>
      </trkpt>
      <trkpt lat="49.20342" lon="-2.021326">
        <ele>19.616869</ele>
        <time>2026-05-17T07:52:34.000Z</time>
      </trkpt>
      <trkpt lat="49.203411" lon="-2.021273">
        <ele>19.77615</ele>
        <time>2026-05-17T07:52:34.000Z</time>
      </trkpt>
      <trkpt lat="49.203394" lon="-2.02116">
        <ele>20.113568</ele>
        <time>2026-05-17T07:52:35.000Z</time>
      </trkpt>
      <trkpt lat="49.203457" lon="-2.020545">
        <ele>21.850841</ele>
        <time>2026-05-17T07:52:40.000Z</time>
      </trkpt>
      <trkpt lat="49.203527" lon="-2.019919">
        <ele>23.604239</ele>
        <time>2026-05-17T07:52:45.000Z</time>
      </trkpt>
      <trkpt lat="49.20351" lon="-2.019736">
        <ele>23.27046</ele>
        <time>2026-05-17T07:52:46.000Z</time>
      </trkpt>
      <trkpt lat="49.203462" lon="-2.019539">
        <ele>22.895153</ele>
        <time>2026-05-17T07:52:48.000Z</time>
      </trkpt>
      <trkpt lat="49.203259" lon="-2.019296">
        <ele>22.18896</ele>
        <time>2026-05-17T07:52:51.000Z</time>
      </trkpt>
      <trkpt lat="49.202963" lon="-2.01901">
        <ele>21.217695</ele>
        <time>2026-05-17T07:52:55.000Z</time>
      </trkpt>
      <trkpt lat="49.202764" lon="-2.01874">
        <ele>20.523797</ele>
        <time>2026-05-17T07:52:58.000Z</time>
      </trkpt>
      <trkpt lat="49.202764" lon="-2.018726">
        <ele>20.489996</ele>
        <time>2026-05-17T07:52:58.000Z</time>
      </trkpt>
      <trkpt lat="49.202658" lon="-2.018585">
        <ele>20.116887</ele>
        <time>2026-05-17T07:53:00.000Z</time>
      </trkpt>
      <trkpt lat="49.202574" lon="-2.018515">
        <ele>19.84859</ele>
        <time>2026-05-17T07:53:01.000Z</time>
      </trkpt>
      <trkpt lat="49.202537" lon="-2.018476">
        <ele>19.743168</ele>
        <time>2026-05-17T07:53:01.000Z</time>
      </trkpt>
      <trkpt lat="49.202505" lon="-2.018428">
        <ele>19.584547</ele>
        <time>2026-05-17T07:53:01.000Z</time>
      </trkpt>
      <trkpt lat="49.202326" lon="-2.018331">
        <ele>19.112501</ele>
        <time>2026-05-17T07:53:03.000Z</time>
      </trkpt>
      <trkpt lat="49.202068" lon="-2.018312">
        <ele>18.786248</ele>
        <time>2026-05-17T07:53:06.000Z</time>
      </trkpt>
      <trkpt lat="49.201901" lon="-2.018398">
        <ele>18.889568</ele>
        <time>2026-05-17T07:53:08.000Z</time>
      </trkpt>
      <trkpt lat="49.201626" lon="-2.01868">
        <ele>19.074274</ele>
        <time>2026-05-17T07:53:12.000Z</time>
      </trkpt>
      <trkpt lat="49.201055" lon="-2.019104">
        <ele>19.434805</ele>
        <time>2026-05-17T07:53:19.000Z</time>
      </trkpt>
      <trkpt lat="49.20087" lon="-2.019288">
        <ele>19.560336</ele>
        <time>2026-05-17T07:53:21.000Z</time>
      </trkpt>
      <trkpt lat="49.200716" lon="-2.019447">
        <ele>19.661203</ele>
        <time>2026-05-17T07:53:23.000Z</time>
      </trkpt>
      <trkpt lat="49.200615" lon="-2.01966">
        <ele>19.544041</ele>
        <time>2026-05-17T07:53:25.000Z</time>
      </trkpt>
      <trkpt lat="49.200576" lon="-2.019786">
        <ele>19.21949</ele>
        <time>2026-05-17T07:53:26.000Z</time>
      </trkpt>
      <trkpt lat="49.200539" lon="-2.020817">
        <ele>16.731537</ele>
        <time>2026-05-17T07:53:34.000Z</time>
      </trkpt>
      <trkpt lat="49.200524" lon="-2.021056">
        <ele>16.134901</ele>
        <time>2026-05-17T07:53:36.000Z</time>
      </trkpt>
      <trkpt lat="49.200152" lon="-2.022389">
        <ele>12.672865</ele>
        <time>2026-05-17T07:53:47.000Z</time>
      </trkpt>
      <trkpt lat="49.200023" lon="-2.02291">
        <ele>11.428849</ele>
        <time>2026-05-17T07:53:51.000Z</time>
      </trkpt>
      <trkpt lat="49.199808" lon="-2.023549">
        <ele>9.820307</ele>
        <time>2026-05-17T07:53:56.000Z</time>
      </trkpt>
      <trkpt lat="49.199757" lon="-2.023659">
        <ele>9.48597</ele>
        <time>2026-05-17T07:53:57.000Z</time>
      </trkpt>
      <trkpt lat="49.199656" lon="-2.023679">
        <ele>9.149859</ele>
        <time>2026-05-17T07:53:58.000Z</time>
      </trkpt>
      <trkpt lat="49.199735" lon="-2.02343">
        <ele>8.50482</ele>
        <time>2026-05-17T07:54:00.000Z</time>
      </trkpt>
      <trkpt lat="49.199931" lon="-2.022671">
        <ele>6.760732</ele>
        <time>2026-05-17T07:54:06.000Z</time>
      </trkpt>
      <trkpt lat="49.199966" lon="-2.022474">
        <ele>6.512797</ele>
        <time>2026-05-17T07:54:07.000Z</time>
      </trkpt>
      <trkpt lat="49.20002" lon="-2.021858">
        <ele>5.70084</ele>
        <time>2026-05-17T07:54:12.000Z</time>
      </trkpt>
      <trkpt lat="49.200012" lon="-2.021443">
        <ele>5.1773</ele>
        <time>2026-05-17T07:54:15.000Z</time>
      </trkpt>
      <trkpt lat="49.199972" lon="-2.021309">
        <ele>4.982017</ele>
        <time>2026-05-17T07:54:16.000Z</time>
      </trkpt>
      <trkpt lat="49.199929" lon="-2.021267">
        <ele>4.887133</ele>
        <time>2026-05-17T07:54:17.000Z</time>
      </trkpt>
      <trkpt lat="49.199896" lon="-2.02126">
        <ele>4.821936</ele>
        <time>2026-05-17T07:54:17.000Z</time>
      </trkpt>
      <trkpt lat="49.199881" lon="-2.021274">
        <ele>4.792831</ele>
        <time>2026-05-17T07:54:17.000Z</time>
      </trkpt>
      <trkpt lat="49.199851" lon="-2.021312">
        <ele>4.718089</ele>
        <time>2026-05-17T07:54:17.000Z</time>
      </trkpt>
      <trkpt lat="49.199826" lon="-2.021579">
        <ele>4.360537</ele>
        <time>2026-05-17T07:54:19.000Z</time>
      </trkpt>
      <trkpt lat="49.199782" lon="-2.021932">
        <ele>3.917495</ele>
        <time>2026-05-17T07:54:22.000Z</time>
      </trkpt>
      <trkpt lat="49.19974" lon="-2.022299">
        <ele>3.442936</ele>
        <time>2026-05-17T07:54:25.000Z</time>
      </trkpt>
      <trkpt lat="49.199649" lon="-2.022831">
        <ele>3.362993</ele>
        <time>2026-05-17T07:54:29.000Z</time>
      </trkpt>
      <trkpt lat="49.199527" lon="-2.023202">
        <ele>3.395958</ele>
        <time>2026-05-17T07:54:32.000Z</time>
      </trkpt>
      <trkpt lat="49.199361" lon="-2.023599">
        <ele>3.431583</ele>
        <time>2026-05-17T07:54:35.000Z</time>
      </trkpt>
      <trkpt lat="49.198971" lon="-2.024457">
        <ele>3.510782</ele>
        <time>2026-05-17T07:54:43.000Z</time>
      </trkpt>
      <trkpt lat="49.198747" lon="-2.025161">
        <ele>3.190055</ele>
        <time>2026-05-17T07:54:49.000Z</time>
      </trkpt>
      <trkpt lat="49.198543" lon="-2.026533">
        <ele>2.025097</ele>
        <time>2026-05-17T07:54:59.000Z</time>
      </trkpt>
      <trkpt lat="49.198453" lon="-2.026916">
        <ele>1.694507</ele>
        <time>2026-05-17T07:55:02.000Z</time>
      </trkpt>
      <trkpt lat="49.198283" lon="-2.027431">
        <ele>1.329086</ele>
        <time>2026-05-17T07:55:06.000Z</time>
      </trkpt>
      <trkpt lat="49.197654" lon="-2.028707">
        <ele>2.899581</ele>
        <time>2026-05-17T07:55:18.000Z</time>
      </trkpt>
      <trkpt lat="49.197526" lon="-2.028918">
        <ele>3.187636</ele>
        <time>2026-05-17T07:55:20.000Z</time>
      </trkpt>
      <trkpt lat="49.197032" lon="-2.029905">
        <ele>4.364769</ele>
        <time>2026-05-17T07:55:29.000Z</time>
      </trkpt>
      <trkpt lat="49.19672" lon="-2.030649">
        <ele>5.158595</ele>
        <time>2026-05-17T07:55:35.000Z</time>
      </trkpt>
      <trkpt lat="49.196449" lon="-2.031018">
        <ele>5.662144</ele>
        <time>2026-05-17T07:55:39.000Z</time>
      </trkpt>
      <trkpt lat="49.196437" lon="-2.031024">
        <ele>5.669299</ele>
        <time>2026-05-17T07:55:39.000Z</time>
      </trkpt>
      <trkpt lat="49.196231" lon="-2.031264">
        <ele>6.038739</ele>
        <time>2026-05-17T07:55:42.000Z</time>
      </trkpt>
      <trkpt lat="49.195879" lon="-2.031788">
        <ele>6.454324</ele>
        <time>2026-05-17T07:55:47.000Z</time>
      </trkpt>
      <trkpt lat="49.195359" lon="-2.032646">
        <ele>6.471239</ele>
        <time>2026-05-17T07:55:56.000Z</time>
      </trkpt>
      <trkpt lat="49.195878" lon="-2.031798">
        <ele>6.488142</ele>
        <time>2026-05-17T07:56:04.000Z</time>
      </trkpt>
      <trkpt lat="49.196229" lon="-2.031258">
        <ele>5.958904</ele>
        <time>2026-05-17T07:56:10.000Z</time>
      </trkpt>
      <trkpt lat="49.196448" lon="-2.031028">
        <ele>5.624084</ele>
        <time>2026-05-17T07:56:13.000Z</time>
      </trkpt>
      <trkpt lat="49.196447" lon="-2.031008">
        <ele>5.617586</ele>
        <time>2026-05-17T07:56:13.000Z</time>
      </trkpt>
      <trkpt lat="49.196709" lon="-2.030651">
        <ele>5.161216</ele>
        <time>2026-05-17T07:56:17.000Z</time>
      </trkpt>
      <trkpt lat="49.197034" lon="-2.029904">
        <ele>4.441763</ele>
        <time>2026-05-17T07:56:24.000Z</time>
      </trkpt>
      <trkpt lat="49.197529" lon="-2.028934">
        <ele>3.153471</ele>
        <time>2026-05-17T07:56:33.000Z</time>
      </trkpt>
      <trkpt lat="49.197652" lon="-2.028699">
        <ele>2.829502</ele>
        <time>2026-05-17T07:56:35.000Z</time>
      </trkpt>
      <trkpt lat="49.198076" lon="-2.027844">
        <ele>1.643348</ele>
        <time>2026-05-17T07:56:43.000Z</time>
      </trkpt>
      <trkpt lat="49.198084" lon="-2.02785">
        <ele>1.641348</ele>
        <time>2026-05-17T07:56:43.000Z</time>
      </trkpt>
      <trkpt lat="49.19829" lon="-2.027417">
        <ele>1.30906</ele>
        <time>2026-05-17T07:56:47.000Z</time>
      </trkpt>
      <trkpt lat="49.198461" lon="-2.026909">
        <ele>1.765384</ele>
        <time>2026-05-17T07:56:51.000Z</time>
      </trkpt>
      <trkpt lat="49.198551" lon="-2.02653">
        <ele>2.081504</ele>
        <time>2026-05-17T07:56:54.000Z</time>
      </trkpt>
      <trkpt lat="49.198749" lon="-2.025152">
        <ele>3.195512</ele>
        <time>2026-05-17T07:57:04.000Z</time>
      </trkpt>
      <trkpt lat="49.198959" lon="-2.024444">
        <ele>3.37055</ele>
        <time>2026-05-17T07:57:10.000Z</time>
      </trkpt>
      <trkpt lat="49.199358" lon="-2.023613">
        <ele>3.359321</ele>
        <time>2026-05-17T07:57:17.000Z</time>
      </trkpt>
      <trkpt lat="49.199527" lon="-2.023213">
        <ele>3.35428</ele>
        <time>2026-05-17T07:57:20.000Z</time>
      </trkpt>
      <trkpt lat="49.19965" lon="-2.022824">
        <ele>3.349602</ele>
        <time>2026-05-17T07:57:23.000Z</time>
      </trkpt>
      <trkpt lat="49.199741" lon="-2.022282">
        <ele>3.670789</ele>
        <time>2026-05-17T07:57:27.000Z</time>
      </trkpt>
      <trkpt lat="49.199788" lon="-2.02192">
        <ele>4.093912</ele>
        <time>2026-05-17T07:57:30.000Z</time>
      </trkpt>
      <trkpt lat="49.199812" lon="-2.021583">
        <ele>4.488935</ele>
        <time>2026-05-17T07:57:32.000Z</time>
      </trkpt>
      <trkpt lat="49.199866" lon="-2.021321">
        <ele>4.807728</ele>
        <time>2026-05-17T07:57:34.000Z</time>
      </trkpt>
      <trkpt lat="49.199894" lon="-2.021257">
        <ele>4.900314</ele>
        <time>2026-05-17T07:57:35.000Z</time>
      </trkpt>
      <trkpt lat="49.199938" lon="-2.021262">
        <ele>4.958438</ele>
        <time>2026-05-17T07:57:35.000Z</time>
      </trkpt>
      <trkpt lat="49.199976" lon="-2.021309">
        <ele>5.043063</ele>
        <time>2026-05-17T07:57:36.000Z</time>
      </trkpt>
      <trkpt lat="49.200008" lon="-2.021449">
        <ele>5.217174</ele>
        <time>2026-05-17T07:57:37.000Z</time>
      </trkpt>
      <trkpt lat="49.200021" lon="-2.021848">
        <ele>5.683944</ele>
        <time>2026-05-17T07:57:40.000Z</time>
      </trkpt>
      <trkpt lat="49.199962" lon="-2.022485">
        <ele>6.4079</ele>
        <time>2026-05-17T07:57:45.000Z</time>
      </trkpt>
      <trkpt lat="49.199931" lon="-2.022668">
        <ele>6.732516</ele>
        <time>2026-05-17T07:57:46.000Z</time>
      </trkpt>
      <trkpt lat="49.19973" lon="-2.023423">
        <ele>8.502856</ele>
        <time>2026-05-17T07:57:52.000Z</time>
      </trkpt>
      <trkpt lat="49.199666" lon="-2.023692">
        <ele>9.126259</ele>
        <time>2026-05-17T07:57:54.000Z</time>
      </trkpt>
      <trkpt lat="49.19975" lon="-2.023657">
        <ele>9.451111</ele>
        <time>2026-05-17T07:57:55.000Z</time>
      </trkpt>
      <trkpt lat="49.199813" lon="-2.023537">
        <ele>9.774223</ele>
        <time>2026-05-17T07:57:56.000Z</time>
      </trkpt>
      <trkpt lat="49.200022" lon="-2.022903">
        <ele>11.328825</ele>
        <time>2026-05-17T07:58:01.000Z</time>
      </trkpt>
      <trkpt lat="49.200166" lon="-2.02238">
        <ele>12.537106</ele>
        <time>2026-05-17T07:58:05.000Z</time>
      </trkpt>
      <trkpt lat="49.200528" lon="-2.021059">
        <ele>16.256994</ele>
        <time>2026-05-17T07:58:15.000Z</time>
      </trkpt>
      <trkpt lat="49.200527" lon="-2.02081">
        <ele>16.892542</ele>
        <time>2026-05-17T07:58:17.000Z</time>
      </trkpt>
      <trkpt lat="49.200579" lon="-2.019782">
        <ele>19.542741</ele>
        <time>2026-05-17T07:58:24.000Z</time>
      </trkpt>
      <trkpt lat="49.200603" lon="-2.01965">
        <ele>19.554529</ele>
        <time>2026-05-17T07:58:25.000Z</time>
      </trkpt>
      <trkpt lat="49.200725" lon="-2.019449">
        <ele>19.460651</ele>
        <time>2026-05-17T07:58:27.000Z</time>
      </trkpt>
      <trkpt lat="49.200868" lon="-2.019275">
        <ele>19.366546</ele>
        <time>2026-05-17T07:58:29.000Z</time>
      </trkpt>
      <trkpt lat="49.201059" lon="-2.019102">
        <ele>19.249428</ele>
        <time>2026-05-17T07:58:31.000Z</time>
      </trkpt>
      <trkpt lat="49.201637" lon="-2.018677">
        <ele>18.913068</ele>
        <time>2026-05-17T07:58:38.000Z</time>
      </trkpt>
      <trkpt lat="49.201898" lon="-2.018382">
        <ele>18.740735</ele>
        <time>2026-05-17T07:58:42.000Z</time>
      </trkpt>
      <trkpt lat="49.20207" lon="-2.018303">
        <ele>18.658511</ele>
        <time>2026-05-17T07:58:44.000Z</time>
      </trkpt>
      <trkpt lat="49.202339" lon="-2.018336">
        <ele>19.361404</ele>
        <time>2026-05-17T07:58:47.000Z</time>
      </trkpt>
      <trkpt lat="49.202501" lon="-2.018419">
        <ele>19.818461</ele>
        <time>2026-05-17T07:58:49.000Z</time>
      </trkpt>
      <trkpt lat="49.202541" lon="-2.018482">
        <ele>19.97205</ele>
        <time>2026-05-17T07:58:50.000Z</time>
      </trkpt>
      <trkpt lat="49.202584" lon="-2.018513">
        <ele>20.074118</ele>
        <time>2026-05-17T07:58:51.000Z</time>
      </trkpt>
      <trkpt lat="49.202662" lon="-2.018597">
        <ele>20.333919</ele>
        <time>2026-05-17T07:58:52.000Z</time>
      </trkpt>
      <trkpt lat="49.202751" lon="-2.018727">
        <ele>20.695172</ele>
        <time>2026-05-17T07:58:53.000Z</time>
      </trkpt>
      <trkpt lat="49.202778" lon="-2.018737">
        <ele>20.727924</ele>
        <time>2026-05-17T07:58:53.000Z</time>
      </trkpt>
      <trkpt lat="49.20296" lon="-2.019">
        <ele>21.399806</ele>
        <time>2026-05-17T07:58:56.000Z</time>
      </trkpt>
      <trkpt lat="49.203262" lon="-2.019289">
        <ele>22.340247</ele>
        <time>2026-05-17T07:59:00.000Z</time>
      </trkpt>
      <trkpt lat="49.203466" lon="-2.019547">
        <ele>23.024031</ele>
        <time>2026-05-17T07:59:03.000Z</time>
      </trkpt>
      <trkpt lat="49.203522" lon="-2.019731">
        <ele>23.38743</ele>
        <time>2026-05-17T07:59:04.000Z</time>
      </trkpt>
      <trkpt lat="49.203519" lon="-2.019914">
        <ele>22.982553</ele>
        <time>2026-05-17T07:59:05.000Z</time>
      </trkpt>
      <trkpt lat="49.203446" lon="-2.020541">
        <ele>21.456969</ele>
        <time>2026-05-17T07:59:10.000Z</time>
      </trkpt>
      <trkpt lat="49.203405" lon="-2.02115">
        <ele>20.003982</ele>
        <time>2026-05-17T07:59:14.000Z</time>
      </trkpt>
      <trkpt lat="49.203414" lon="-2.021272">
        <ele>19.721778</ele>
        <time>2026-05-17T07:59:15.000Z</time>
      </trkpt>
      <trkpt lat="49.203415" lon="-2.02132">
        <ele>19.588571</ele>
        <time>2026-05-17T07:59:15.000Z</time>
      </trkpt>
      <trkpt lat="49.203649" lon="-2.021811">
        <ele>18.139777</ele>
        <time>2026-05-17T07:59:19.000Z</time>
      </trkpt>
      <trkpt lat="49.203917" lon="-2.022158">
        <ele>16.875885</ele>
        <time>2026-05-17T07:59:23.000Z</time>
      </trkpt>
      <trkpt lat="49.204026" lon="-2.022225">
        <ele>16.183679</ele>
        <time>2026-05-17T07:59:24.000Z</time>
      </trkpt>
      <trkpt lat="49.204532" lon="-2.022431">
        <ele>13.151923</ele>
        <time>2026-05-17T07:59:30.000Z</time>
      </trkpt>
      <trkpt lat="49.205138" lon="-2.02262">
        <ele>9.554088</ele>
        <time>2026-05-17T07:59:37.000Z</time>
      </trkpt>
      <trkpt lat="49.205274" lon="-2.022653">
        <ele>8.797888</ele>
        <time>2026-05-17T07:59:39.000Z</time>
      </trkpt>
      <trkpt lat="49.20583" lon="-2.022775">
        <ele>6.57051</ele>
        <time>2026-05-17T07:59:45.000Z</time>
      </trkpt>
      <trkpt lat="49.206351" lon="-2.022773">
        <ele>7.281664</ele>
        <time>2026-05-17T07:59:51.000Z</time>
      </trkpt>
      <trkpt lat="49.206592" lon="-2.022682">
        <ele>7.651374</ele>
        <time>2026-05-17T07:59:54.000Z</time>
      </trkpt>
      <trkpt lat="49.206693" lon="-2.022606">
        <ele>7.801398</ele>
        <time>2026-05-17T07:59:55.000Z</time>
      </trkpt>
      <trkpt lat="49.206914" lon="-2.022285">
        <ele>8.210682</ele>
        <time>2026-05-17T07:59:58.000Z</time>
      </trkpt>
      <trkpt lat="49.207133" lon="-2.021965">
        <ele>8.635443</ele>
        <time>2026-05-17T08:00:01.000Z</time>
      </trkpt>
      <trkpt lat="49.207631" lon="-2.021648">
        <ele>10.56722</ele>
        <time>2026-05-17T08:00:07.000Z</time>
      </trkpt>
      <trkpt lat="49.207854" lon="-2.021553">
        <ele>11.586996</ele>
        <time>2026-05-17T08:00:10.000Z</time>
      </trkpt>
      <trkpt lat="49.208039" lon="-2.021561">
        <ele>12.35851</ele>
        <time>2026-05-17T08:00:12.000Z</time>
      </trkpt>
      <trkpt lat="49.208163" lon="-2.021623">
        <ele>12.964405</ele>
        <time>2026-05-17T08:00:13.000Z</time>
      </trkpt>
      <trkpt lat="49.208227" lon="-2.021694">
        <ele>13.286588</ele>
        <time>2026-05-17T08:00:14.000Z</time>
      </trkpt>
      <trkpt lat="49.208377" lon="-2.022018">
        <ele>14.456207</ele>
        <time>2026-05-17T08:00:17.000Z</time>
      </trkpt>
      <trkpt lat="49.208599" lon="-2.022857">
        <ele>16.944965</ele>
        <time>2026-05-17T08:00:24.000Z</time>
      </trkpt>
      <trkpt lat="49.208938" lon="-2.024505">
        <ele>19.210955</ele>
        <time>2026-05-17T08:00:37.000Z</time>
      </trkpt>
      <trkpt lat="49.209095" lon="-2.024818">
        <ele>19.736008</ele>
        <time>2026-05-17T08:00:40.000Z</time>
      </trkpt>
      <trkpt lat="49.209145" lon="-2.024924">
        <ele>19.928381</ele>
        <time>2026-05-17T08:00:41.000Z</time>
      </trkpt>
      <trkpt lat="49.209343" lon="-2.025214">
        <ele>20.459427</ele>
        <time>2026-05-17T08:00:44.000Z</time>
      </trkpt>
      <trkpt lat="49.2096" lon="-2.025485">
        <ele>20.299242</ele>
        <time>2026-05-17T08:00:47.000Z</time>
      </trkpt>
      <trkpt lat="49.209622" lon="-2.025513">
        <ele>20.283014</ele>
        <time>2026-05-17T08:00:47.000Z</time>
      </trkpt>
      <trkpt lat="49.209968" lon="-2.025753">
        <ele>20.078178</ele>
        <time>2026-05-17T08:00:51.000Z</time>
      </trkpt>
      <trkpt lat="49.210205" lon="-2.02588">
        <ele>19.94913</ele>
        <time>2026-05-17T08:00:54.000Z</time>
      </trkpt>
      <trkpt lat="49.210233" lon="-2.025891">
        <ele>19.936985</ele>
        <time>2026-05-17T08:00:54.000Z</time>
      </trkpt>
      <trkpt lat="49.211099" lon="-2.025965">
        <ele>19.57778</ele>
        <time>2026-05-17T08:01:04.000Z</time>
      </trkpt>
      <trkpt lat="49.211303" lon="-2.026037">
        <ele>19.807111</ele>
        <time>2026-05-17T08:01:06.000Z</time>
      </trkpt>
      <trkpt lat="49.211507" lon="-2.026141">
        <ele>20.062515</ele>
        <time>2026-05-17T08:01:08.000Z</time>
      </trkpt>
      <trkpt lat="49.211685" lon="-2.026329">
        <ele>20.301095</ele>
        <time>2026-05-17T08:01:10.000Z</time>
      </trkpt>
      <trkpt lat="49.211891" lon="-2.026639">
        <ele>20.611342</ele>
        <time>2026-05-17T08:01:13.000Z</time>
      </trkpt>
      <trkpt lat="49.212206" lon="-2.027156">
        <ele>21.12295</ele>
        <time>2026-05-17T08:01:18.000Z</time>
      </trkpt>
      <trkpt lat="49.21232" lon="-2.027269">
        <ele>21.268493</ele>
        <time>2026-05-17T08:01:20.000Z</time>
      </trkpt>
      <trkpt lat="49.212527" lon="-2.027393">
        <ele>21.483618</ele>
        <time>2026-05-17T08:01:22.000Z</time>
      </trkpt>
      <trkpt lat="49.213142" lon="-2.027479">
        <ele>20.956349</ele>
        <time>2026-05-17T08:01:29.000Z</time>
      </trkpt>
      <trkpt lat="49.213538" lon="-2.02756">
        <ele>20.614521</ele>
        <time>2026-05-17T08:01:33.000Z</time>
      </trkpt>
      <trkpt lat="49.213685" lon="-2.027635">
        <ele>20.472014</ele>
        <time>2026-05-17T08:01:35.000Z</time>
      </trkpt>
      <trkpt lat="49.214038" lon="-2.027988">
        <ele>20.117063</ele>
        <time>2026-05-17T08:01:40.000Z</time>
      </trkpt>
      <trkpt lat="49.214082" lon="-2.028044">
        <ele>20.064699</ele>
        <time>2026-05-17T08:01:41.000Z</time>
      </trkpt>
      <trkpt lat="49.21511" lon="-2.029518">
        <ele>18.536891</ele>
        <time>2026-05-17T08:01:57.000Z</time>
      </trkpt>
      <trkpt lat="49.216675" lon="-2.030787">
        <ele>14.49777</ele>
        <time>2026-05-17T08:02:17.000Z</time>
      </trkpt>
      <trkpt lat="49.217501" lon="-2.031375">
        <ele>11.669873</ele>
        <time>2026-05-17T08:02:27.000Z</time>
      </trkpt>
      <trkpt lat="49.217597" lon="-2.030985">
        <ele>10.64584</ele>
        <time>2026-05-17T08:02:30.000Z</time>
      </trkpt>
      <trkpt lat="49.218044" lon="-2.030263">
        <ele>8.243402</ele>
        <time>2026-05-17T08:02:37.000Z</time>
      </trkpt>
      <trkpt lat="49.21853" lon="-2.029884">
        <ele>6.254435</ele>
        <time>2026-05-17T08:02:43.000Z</time>
      </trkpt>
      <trkpt lat="49.218692" lon="-2.029744">
        <ele>6.475939</ele>
        <time>2026-05-17T08:02:45.000Z</time>
      </trkpt>
      <trkpt lat="49.218862" lon="-2.029467">
        <ele>6.751855</ele>
        <time>2026-05-17T08:02:48.000Z</time>
      </trkpt>
      <trkpt lat="49.218972" lon="-2.028899">
        <ele>7.199192</ele>
        <time>2026-05-17T08:02:52.000Z</time>
      </trkpt>
      <trkpt lat="49.219078" lon="-2.02858">
        <ele>7.470409</ele>
        <time>2026-05-17T08:02:55.000Z</time>
      </trkpt>
      <trkpt lat="49.219539" lon="-2.028015">
        <ele>8.133823</ele>
        <time>2026-05-17T08:03:02.000Z</time>
      </trkpt>
      <trkpt lat="49.219672" lon="-2.027751">
        <ele>8.353408</ele>
        <time>2026-05-17T08:03:04.000Z</time>
      </trkpt>
      <trkpt lat="49.219836" lon="-2.027339">
        <ele>8.587231</ele>
        <time>2026-05-17T08:03:08.000Z</time>
      </trkpt>
      <trkpt lat="49.219985" lon="-2.027025">
        <ele>8.771628</ele>
        <time>2026-05-17T08:03:11.000Z</time>
      </trkpt>
      <trkpt lat="49.220202" lon="-2.026843">
        <ele>8.950754</ele>
        <time>2026-05-17T08:03:14.000Z</time>
      </trkpt>
      <trkpt lat="49.220462" lon="-2.026735">
        <ele>9.152241</ele>
        <time>2026-05-17T08:03:17.000Z</time>
      </trkpt>
      <trkpt lat="49.22104" lon="-2.026979">
        <ele>9.586268</ele>
        <time>2026-05-17T08:03:24.000Z</time>
      </trkpt>
      <trkpt lat="49.221164" lon="-2.026977">
        <ele>9.536215</ele>
        <time>2026-05-17T08:03:25.000Z</time>
      </trkpt>
      <trkpt lat="49.221452" lon="-2.026879">
        <ele>9.266029</ele>
        <time>2026-05-17T08:03:28.000Z</time>
      </trkpt>
      <trkpt lat="49.221666" lon="-2.026708">
        <ele>9.057251</ele>
        <time>2026-05-17T08:03:31.000Z</time>
      </trkpt>
      <trkpt lat="49.221804" lon="-2.026559">
        <ele>8.901643</ele>
        <time>2026-05-17T08:03:33.000Z</time>
      </trkpt>
      <trkpt lat="49.222019" lon="-2.026127">
        <ele>8.600818</ele>
        <time>2026-05-17T08:03:37.000Z</time>
      </trkpt>
      <trkpt lat="49.222499" lon="-2.02511">
        <ele>8.383836</ele>
        <time>2026-05-17T08:03:46.000Z</time>
      </trkpt>
      <trkpt lat="49.22263" lon="-2.024886">
        <ele>8.793959</ele>
        <time>2026-05-17T08:03:48.000Z</time>
      </trkpt>
      <trkpt lat="49.22296" lon="-2.024576">
        <ele>9.589725</ele>
        <time>2026-05-17T08:03:52.000Z</time>
      </trkpt>
      <trkpt lat="49.22324" lon="-2.024321">
        <ele>10.249296</ele>
        <time>2026-05-17T08:03:56.000Z</time>
      </trkpt>
      <trkpt lat="49.223461" lon="-2.024056">
        <ele>10.81462</ele>
        <time>2026-05-17T08:03:59.000Z</time>
      </trkpt>
      <trkpt lat="49.223652" lon="-2.023729">
        <ele>11.402396</ele>
        <time>2026-05-17T08:04:02.000Z</time>
      </trkpt>
      <trkpt lat="49.22396" lon="-2.023348">
        <ele>11.623299</ele>
        <time>2026-05-17T08:04:06.000Z</time>
      </trkpt>
      <trkpt lat="49.224406" lon="-2.022987">
        <ele>11.404416</ele>
        <time>2026-05-17T08:04:12.000Z</time>
      </trkpt>
      <trkpt lat="49.224539" lon="-2.022907">
        <ele>11.345752</ele>
        <time>2026-05-17T08:04:14.000Z</time>
      </trkpt>
      <trkpt lat="49.224684" lon="-2.022759">
        <ele>11.270222</ele>
        <time>2026-05-17T08:04:16.000Z</time>
      </trkpt>
      <trkpt lat="49.224829" lon="-2.022508">
        <ele>11.181926</ele>
        <time>2026-05-17T08:04:18.000Z</time>
      </trkpt>
      <trkpt lat="49.224914" lon="-2.022248">
        <ele>11.095721</ele>
        <time>2026-05-17T08:04:20.000Z</time>
      </trkpt>
      <trkpt lat="49.224979" lon="-2.021914">
        <ele>10.995839</ele>
        <time>2026-05-17T08:04:23.000Z</time>
      </trkpt>
      <trkpt lat="49.225003" lon="-2.021681">
        <ele>10.9390242239</ele>
        <time>2026-05-17T08:04:25.000Z</time>
      </trkpt>
      <trkpt lat="49.224993" lon="-2.021329">
        <ele>10.8541603179</ele>
        <time>2026-05-17T08:04:28.000Z</time>
      </trkpt>
      <trkpt lat="49.224968" lon="-2.021074">
        <ele>10.792052077</ele>
        <time>2026-05-17T08:04:30.000Z</time>
      </trkpt>
      <trkpt lat="49.22491" lon="-2.020807">
        <ele>10.7242774733</ele>
        <time>2026-05-17T08:04:32.000Z</time>
      </trkpt>
      <trkpt lat="49.224646" lon="-2.019899">
        <ele>10.4848793047</ele>
        <time>2026-05-17T08:04:39.000Z</time>
      </trkpt>
    </trkseg>
  </trk>
</gpx>

<!--
Performance optimized by W3 Total Cache. Learn more: https://www.boldgrid.com/w3-total-cache/?utm_source=w3tc&utm_medium=footer_comment&utm_campaign=free_plugin

Page Caching using Disk: Enhanced{w3tc_pagecache_reject_reason} 

Served from: www.aquabike.world @ 2026-05-10 17:31:15 by W3 Total Cache
-->